Time;durP1;ratioP1;P1;durP2;ratioP2;P2;SDS_P1;SDS_P2;PMS_P1;PMS_P2;Temp;Humidity;BMP_temperature;BMP_pressure;BME280_temperature;BME280_humidity;BME280_pressure;Samples;Min_cycle;Max_cycle;Signal;HPM_P1;HPM_P2
2021/04/16 00:00:56;;;;;;;9.70;3.90;;;23.00;53.00;;;;;;5063153;28;20079;-60
2021/04/16 00:03:24;;;;;;;7.50;3.55;;;23.10;53.30;;;;;;5067920;28;20028;-62
2021/04/16 00:05:52;;;;;;;5.80;3.65;;;23.10;54.10;;;;;;5067509;28;20356;-57
2021/04/16 00:08:27;;;;;;;8.20;4.15;;;23.10;53.20;;;;;;5066480;28;20069;-63
2021/04/16 00:10:59;;;;;;;6.15;3.58;;;23.20;53.00;;;;;;5068088;28;20049;-61
2021/04/16 00:13:27;;;;;;;4.38;3.40;;;23.20;53.50;;;;;;5067810;28;20037;-59
2021/04/16 00:15:55;;;;;;;10.65;3.90;;;23.30;53.30;;;;;;5067867;28;20043;-55
2021/04/16 00:18:29;;;;;;;5.50;3.65;;;23.30;53.50;;;;;;5066002;28;20485;-59
2021/04/16 00:20:58;;;;;;;5.50;3.38;;;23.30;53.00;;;;;;5068450;28;20387;-62
2021/04/16 00:23:27;;;;;;;7.68;3.80;;;23.40;53.00;;;;;;5068377;28;20482;-65
2021/04/16 00:25:54;;;;;;;8.35;3.42;;;23.40;53.60;;;;;;5067966;28;20475;-64
2021/04/16 00:28:22;;;;;;;6.32;3.20;;;23.40;53.30;;;;;;5066261;28;20536;-58
2021/04/16 00:31:02;;;;;;;8.52;3.88;;;23.40;53.50;;;;;;5067891;28;20024;-65
2021/04/16 00:33:30;;;;;;;7.22;3.47;;;23.40;53.40;;;;;;5069549;28;20043;-63
2021/04/16 00:35:58;;;;;;;12.45;3.63;;;23.40;53.50;;;;;;5069954;28;20366;-57
2021/04/16 00:38:26;;;;;;;7.35;3.90;;;23.40;53.30;;;;;;5071225;28;20062;-61
2021/04/16 00:40:57;;;;;;;4.82;3.08;;;23.40;53.90;;;;;;5052102;28;20029;-67
2021/04/16 00:43:27;;;;;;;5.82;3.47;;;23.40;53.80;;;;;;5052027;28;20040;-64
2021/04/16 00:46:20;;;;;;;7.47;3.33;;;23.30;54.10;;;;;;5061230;28;20051;-62
2021/04/16 00:48:55;;;;;;;5.90;3.30;;;23.30;54.30;;;;;;5070517;28;20029;-65
2021/04/16 00:51:30;;;;;;;5.18;3.17;;;23.30;54.50;;;;;;5070057;28;20020;-63
2021/04/16 00:53:59;;;;;;;5.68;3.47;;;23.30;54.80;;;;;;5070855;28;20079;-61
2021/04/16 00:56:27;;;;;;;9.32;3.47;;;23.40;54.80;;;;;;5069433;28;20028;-66
2021/04/16 00:58:54;;;;;;;8.32;3.75;;;23.40;55.00;;;;;;5071648;28;20033;-62
2021/04/16 01:01:24;;;;;;;14.07;3.25;;;23.40;55.10;;;;;;5071583;28;20479;-63
2021/04/16 01:03:52;;;;;;;6.47;3.78;;;23.40;55.30;;;;;;5071359;28;20565;-63
2021/04/16 01:06:23;;;;;;;6.32;3.05;;;23.40;55.20;;;;;;5071244;28;20140;-62
2021/04/16 01:08:51;;;;;;;5.75;3.10;;;23.40;55.50;;;;;;5070849;28;20055;-65
2021/04/16 01:11:19;;;;;;;6.20;3.25;;;23.50;55.00;;;;;;5071517;28;20040;-64
2021/04/16 01:13:48;;;;;;;7.78;3.58;;;23.60;55.10;;;;;;5070842;28;20040;-62
2021/04/16 01:16:18;;;;;;;7.07;3.80;;;23.60;55.90;;;;;;5070967;28;20044;-61
2021/04/16 01:18:51;;;;;;;7.80;3.17;;;23.60;55.20;;;;;;5071265;28;20108;-67
2021/04/16 01:21:23;;;;;;;9.15;3.28;;;23.50;54.90;;;;;;5071269;28;20101;-67
2021/04/16 01:24:24;;;;;;;6.63;3.47;;;23.40;55.10;;;;;;5071017;28;20066;-62
2021/04/16 01:26:52;;;;;;;5.88;2.88;;;23.30;55.70;;;;;;5070472;28;20035;-65
2021/04/16 01:29:20;;;;;;;5.78;3.00;;;23.40;56.20;;;;;;5070898;28;20043;-67
2021/04/16 01:31:47;;;;;;;7.97;3.05;;;23.30;55.60;;;;;;5070804;28;20085;-66
2021/04/16 01:34:21;;;;;;;7.53;4.03;;;23.30;56.10;;;;;;5070151;28;20411;-58
2021/04/16 01:36:53;;;;;;;7.03;3.00;;;23.30;56.20;;;;;;5071026;28;20489;-61
2021/04/16 01:39:22;;;;;;;8.27;3.17;;;23.30;56.00;;;;;;5070795;28;20059;-67
2021/04/16 01:41:50;;;;;;;5.22;3.00;;;23.20;56.00;;;;;;5070593;28;20036;-61
2021/04/16 01:44:21;;;;;;;7.32;3.00;;;23.20;56.00;;;;;;5068146;28;20128;-65
2021/04/16 01:47:02;;;;;;;7.10;3.13;;;23.20;56.30;;;;;;5070290;28;20025;-59
2021/04/16 01:49:35;;;;;;;6.23;3.53;;;23.10;56.50;;;;;;5070696;28;20051;-65
2021/04/16 01:52:05;;;;;;;6.93;3.28;;;23.10;56.60;;;;;;5069092;28;20111;-58
2021/04/16 01:54:43;;;;;;;6.70;3.42;;;23.00;56.90;;;;;;5070302;28;20483;-65
2021/04/16 01:57:16;;;;;;;5.10;2.42;;;23.10;57.30;;;;;;5070677;28;20055;-67
2021/04/16 01:59:46;;;;;;;7.63;3.40;;;23.10;57.30;;;;;;5070620;28;20048;-64
2021/04/16 02:02:25;;;;;;;5.93;3.00;;;23.10;57.00;;;;;;5068961;28;20111;-62
2021/04/16 02:04:53;;;;;;;8.73;3.53;;;23.10;57.20;;;;;;5070238;28;20052;-66
2021/04/16 02:07:21;;;;;;;6.55;3.28;;;23.20;57.00;;;;;;5070466;28;20114;-60
2021/04/16 02:09:48;;;;;;;6.40;3.25;;;23.20;56.70;;;;;;5052034;28;20388;-65
2021/04/16 02:12:20;;;;;;;6.07;3.08;;;23.20;56.80;;;;;;5070223;28;20028;-60
2021/04/16 02:14:49;;;;;;;4.93;2.63;;;23.20;57.10;;;;;;5068508;28;20040;-61
2021/04/16 02:17:21;;;;;;;3.40;2.35;;;23.30;56.90;;;;;;5068976;28;20379;-64
2021/04/16 02:19:49;;;;;;;4.25;2.53;;;23.30;56.80;;;;;;5068660;28;20028;-63
2021/04/16 02:22:19;;;;;;;7.82;2.92;;;23.30;57.10;;;;;;5069555;28;20371;-61
2021/04/16 02:24:48;;;;;;;7.13;3.65;;;23.40;56.90;;;;;;5050635;28;20040;-61
2021/04/16 02:27:18;;;;;;;7.43;3.08;;;23.40;56.90;;;;;;5064512;28;20117;-66
2021/04/16 02:29:50;;;;;;;6.18;2.95;;;23.50;56.90;;;;;;5070329;28;20074;-62
2021/04/16 02:32:18;;;;;;;6.68;2.85;;;23.50;56.70;;;;;;5069617;28;20044;-64
2021/04/16 02:34:48;;;;;;;6.93;3.03;;;23.50;56.70;;;;;;5071730;28;20044;-62
2021/04/16 02:37:20;;;;;;;5.50;2.67;;;23.60;56.70;;;;;;5070044;28;20149;-59
2021/04/16 02:39:48;;;;;;;6.38;3.00;;;23.60;56.60;;;;;;5048240;28;20359;-66
2021/04/16 02:42:15;;;;;;;4.65;2.45;;;23.60;57.20;;;;;;5065543;28;20044;-63
2021/04/16 02:44:43;;;;;;;6.63;2.63;;;23.60;56.70;;;;;;5069428;28;20043;-66
2021/04/16 02:47:11;;;;;;;7.43;2.58;;;23.70;56.50;;;;;;5069355;28;20017;-64
2021/04/16 02:49:39;;;;;;;6.32;3.10;;;23.70;56.60;;;;;;5067906;28;20086;-63
2021/04/16 02:52:07;;;;;;;7.53;2.97;;;23.60;56.70;;;;;;5069440;28;20479;-65
2021/04/16 02:54:35;;;;;;;5.65;2.97;;;23.60;56.80;;;;;;5069441;28;20539;-64
2021/04/16 02:57:03;;;;;;;5.13;2.80;;;23.60;57.00;;;;;;5065162;28;20039;-64
2021/04/16 02:59:30;;;;;;;5.00;2.35;;;23.60;57.50;;;;;;5069804;28;20059;-64
2021/04/16 03:01:58;;;;;;;5.57;2.70;;;23.50;57.40;;;;;;5069451;28;20137;-64
2021/04/16 03:04:26;;;;;;;3.33;2.22;;;23.60;57.40;;;;;;5067830;28;20029;-66
2021/04/16 03:06:53;;;;;;;4.50;2.58;;;23.60;57.70;;;;;;5059052;28;20070;-62
2021/04/16 03:09:21;;;;;;;4.68;2.40;;;23.60;57.70;;;;;;5068921;28;20509;-63
2021/04/16 03:11:48;;;;;;;4.70;2.90;;;23.60;57.50;;;;;;5069701;28;20033;-62
2021/04/16 03:14:16;;;;;;;5.90;2.53;;;23.60;57.60;;;;;;5069065;28;20036;-65
2021/04/16 03:16:43;;;;;;;4.50;2.65;;;23.60;57.90;;;;;;5069194;28;20024;-62
2021/04/16 03:19:15;;;;;;;5.53;2.70;;;23.60;57.70;;;;;;5069104;28;20313;-62
2021/04/16 03:21:42;;;;;;;8.68;2.78;;;23.60;57.60;;;;;;5069449;28;20033;-62
2021/04/16 03:24:10;;;;;;;7.85;2.58;;;23.50;57.80;;;;;;5069088;28;20045;-66
2021/04/16 03:26:38;;;;;;;7.28;2.30;;;23.50;57.90;;;;;;5068985;28;20419;-66
2021/04/16 03:29:05;;;;;;;7.78;2.90;;;23.40;58.20;;;;;;5069034;28;20029;-67
2021/04/16 03:31:33;;;;;;;5.95;2.67;;;23.40;58.00;;;;;;5068675;28;20116;-63
2021/04/16 03:34:03;;;;;;;5.90;2.90;;;23.40;58.50;;;;;;5069453;28;20036;-59
2021/04/16 03:36:31;;;;;;;5.70;2.30;;;23.30;58.80;;;;;;5068330;28;20478;-61
2021/04/16 03:38:59;;;;;;;5.05;2.22;;;23.20;59.00;;;;;;5067228;28;20074;-63
2021/04/16 03:41:26;;;;;;;6.40;2.58;;;23.20;59.10;;;;;;5058290;28;20115;-59
2021/04/16 03:43:54;;;;;;;7.65;2.83;;;23.20;59.40;;;;;;5068870;28;20027;-63
2021/04/16 03:46:21;;;;;;;5.53;2.50;;;23.10;59.20;;;;;;5067935;28;20032;-60
2021/04/16 03:48:49;;;;;;;6.13;2.15;;;23.10;59.60;;;;;;5068401;28;20040;-51
2021/04/16 03:51:17;;;;;;;3.92;2.00;;;23.10;59.70;;;;;;5068650;28;20071;-59
2021/04/16 03:53:44;;;;;;;4.38;2.15;;;23.00;60.00;;;;;;5068813;28;20123;-62
2021/04/16 03:56:14;;;;;;;6.22;2.63;;;22.90;60.20;;;;;;5068146;28;20461;-60
2021/04/16 03:58:44;;;;;;;4.80;2.45;;;22.90;60.90;;;;;;5069562;28;20056;-61
2021/04/16 04:01:13;;;;;;;9.25;2.58;;;22.90;60.80;;;;;;5068455;28;20128;-61
2021/04/16 04:03:41;;;;;;;7.70;2.78;;;22.90;60.50;;;;;;5068892;28;20059;-61
2021/04/16 04:06:08;;;;;;;5.85;3.17;;;22.80;60.80;;;;;;5068450;28;20029;-64
2021/04/16 04:08:36;;;;;;;7.35;2.33;;;22.80;61.30;;;;;;5070262;28;20032;-61
2021/04/16 04:11:04;;;;;;;4.68;2.47;;;22.80;61.00;;;;;;5072329;28;20040;-56
2021/04/16 04:13:32;;;;;;;7.07;2.38;;;22.80;61.30;;;;;;5071816;28;20132;-60
2021/04/16 04:16:00;;;;;;;5.15;2.63;;;22.80;61.30;;;;;;5072176;28;20029;-60
2021/04/16 04:18:28;;;;;;;5.25;2.38;;;22.80;61.40;;;;;;5071817;28;20037;-59
2021/04/16 04:20:56;;;;;;;7.50;2.65;;;22.70;61.40;;;;;;5071619;28;20020;-63
2021/04/16 04:23:24;;;;;;;6.47;2.88;;;22.70;61.50;;;;;;5059589;28;20390;-54
2021/04/16 04:25:51;;;;;;;5.53;2.25;;;22.70;61.80;;;;;;5072000;28;20024;-60
2021/04/16 04:28:19;;;;;;;5.30;2.20;;;22.70;61.90;;;;;;5071610;28;20029;-56
2021/04/16 04:30:46;;;;;;;6.90;3.40;;;22.70;62.00;;;;;;5060477;28;20068;-61
2021/04/16 04:33:14;;;;;;;8.25;2.97;;;22.70;61.70;;;;;;5071238;28;20044;-64
2021/04/16 04:35:41;;;;;;;6.40;2.60;;;22.70;61.80;;;;;;5072125;28;20505;-61
2021/04/16 04:38:09;;;;;;;4.88;2.83;;;22.70;61.90;;;;;;5072189;28;20036;-59
2021/04/16 04:40:40;;;;;;;6.17;2.67;;;22.70;62.30;;;;;;5072265;28;20099;-56
2021/04/16 04:43:08;;;;;;;6.25;2.42;;;22.70;62.70;;;;;;5072470;28;20039;-65
2021/04/16 04:45:36;;;;;;;8.27;3.05;;;22.70;63.30;;;;;;5072415;28;20455;-65
2021/04/16 04:48:06;;;;;;;9.43;2.95;;;22.70;62.60;;;;;;5071573;28;20036;-65
2021/04/16 04:50:34;;;;;;;9.13;2.85;;;22.70;61.70;;;;;;5071655;28;20028;-64
2021/04/16 04:53:01;;;;;;;8.98;2.35;;;22.70;62.30;;;;;;5071243;28;20036;-63
2021/04/16 04:55:33;;;;;;;16.85;3.17;;;22.70;62.70;;;;;;5071259;28;20098;-62
2021/04/16 04:58:00;;;;;;;7.47;3.13;;;22.70;62.60;;;;;;5071920;28;20033;-57
2021/04/16 05:00:28;;;;;;;5.47;2.35;;;22.70;63.40;;;;;;5071413;28;20375;-65
2021/04/16 05:02:57;;;;;;;8.75;2.08;;;22.80;63.50;;;;;;5071900;28;20119;-59
2021/04/16 05:05:25;;;;;;;7.28;2.25;;;22.80;63.80;;;;;;5071483;28;20079;-61
2021/04/16 05:07:53;;;;;;;5.90;2.13;;;22.80;64.30;;;;;;5071191;28;20029;-63
2021/04/16 05:10:21;;;;;;;11.68;2.10;;;22.80;64.30;;;;;;5071048;28;20045;-66
2021/04/16 05:12:49;;;;;;;4.47;2.42;;;22.80;63.80;;;;;;5071244;28;20067;-61
2021/04/16 05:15:17;;;;;;;8.07;2.30;;;22.80;64.30;;;;;;5071565;28;20375;-63
2021/04/16 05:17:48;;;;;;;5.45;2.08;;;22.80;65.80;;;;;;5071750;28;20119;-67
2021/04/16 05:20:22;;;;;;;10.40;2.03;;;22.80;64.00;;;;;;5071444;28;20048;-58
2021/04/16 05:22:50;;;;;;;7.15;1.95;;;22.80;63.90;;;;;;5062911;28;21174;-56
2021/04/16 05:25:20;;;;;;;18.67;2.17;;;22.70;63.90;;;;;;5069050;28;20028;-58
2021/04/16 05:27:48;;;;;;;4.47;2.33;;;22.70;64.80;;;;;;5070833;28;20035;-64
2021/04/16 05:30:16;;;;;;;5.32;2.17;;;22.70;64.80;;;;;;5067865;28;20516;-60
2021/04/16 05:32:45;;;;;;;5.95;2.13;;;22.70;64.70;;;;;;5068755;28;20052;-60
2021/04/16 05:35:13;;;;;;;8.57;2.30;;;22.80;64.90;;;;;;5066215;28;20029;-62
2021/04/16 05:37:44;;;;;;;8.98;2.55;;;22.70;65.00;;;;;;5068631;28;20420;-62
2021/04/16 05:40:12;;;;;;;2.58;1.52;;;22.70;65.00;;;;;;5070030;28;20024;-54
2021/04/16 05:42:40;;;;;;;5.50;2.20;;;22.70;65.70;;;;;;5065741;28;20025;-61
2021/04/16 05:45:08;;;;;;;4.57;2.38;;;22.70;65.10;;;;;;5068900;28;20081;-62
2021/04/16 05:47:36;;;;;;;9.10;2.60;;;22.70;65.00;;;;;;5070324;28;20025;-60
2021/04/16 05:50:05;;;;;;;6.00;2.35;;;22.70;65.20;;;;;;5069078;28;20032;-61
2021/04/16 05:52:33;;;;;;;5.53;2.15;;;22.70;65.00;;;;;;5069452;28;20040;-60
2021/04/16 05:55:00;;;;;;;6.00;2.40;;;22.70;65.00;;;;;;5070418;28;20039;-61
2021/04/16 05:57:36;;;;;;;4.63;1.80;;;22.60;64.20;;;;;;5070754;28;20486;-58
2021/04/16 06:00:08;;;;;;;8.30;2.60;;;22.70;64.80;;;;;;5068951;28;20399;-59
2021/04/16 06:02:44;;;;;;;5.22;1.77;;;22.60;64.90;;;;;;5070378;28;20080;-64
2021/04/16 06:05:15;;;;;;;7.15;1.90;;;22.70;64.20;;;;;;5070380;28;20040;-63
2021/04/16 06:07:43;;;;;;;6.88;2.17;;;22.60;64.70;;;;;;5069107;28;20025;-58
2021/04/16 06:10:12;;;;;;;7.93;2.75;;;22.60;64.70;;;;;;5067960;28;20048;-65
2021/04/16 06:12:44;;;;;;;4.40;2.03;;;22.60;64.70;;;;;;5070067;28;20043;-61
2021/04/16 06:15:20;;;;;;;4.63;2.10;;;22.60;64.50;;;;;;5070234;28;20535;-61
2021/04/16 06:17:47;;;;;;;5.80;1.90;;;22.60;64.60;;;;;;5069987;28;20025;-64
2021/04/16 06:20:18;;;;;;;7.07;2.47;;;22.50;64.40;;;;;;5069999;28;20071;-58
2021/04/16 06:22:47;;;;;;;6.55;2.05;;;22.50;64.70;;;;;;5070456;28;20028;-63
2021/04/16 06:25:18;;;;;;;5.07;1.95;;;22.50;64.50;;;;;;5068713;28;20064;-61
2021/04/16 06:27:45;;;;;;;5.72;1.88;;;22.50;64.50;;;;;;5070273;28;20101;-63
2021/04/16 06:30:14;;;;;;;7.47;2.85;;;22.50;63.80;;;;;;5069530;28;20074;-58
2021/04/16 06:32:42;;;;;;;6.00;2.30;;;22.50;63.50;;;;;;5069768;28;20032;-62
2021/04/16 06:35:13;;;;;;;5.82;1.67;;;22.50;64.20;;;;;;5068555;28;20036;-64
2021/04/16 06:37:41;;;;;;;5.40;1.92;;;22.40;64.40;;;;;;5069670;28;20031;-66
2021/04/16 06:40:09;;;;;;;5.00;1.88;;;22.40;64.30;;;;;;5070003;28;20035;-62
2021/04/16 06:42:37;;;;;;;3.38;1.90;;;22.40;64.40;;;;;;5069343;28;20425;-63
2021/04/16 06:45:16;;;;;;;4.53;2.00;;;22.40;64.40;;;;;;5068174;28;20024;-63
2021/04/16 06:47:53;;;;;;;4.65;1.67;;;22.30;64.50;;;;;;5069584;28;20580;-61
2021/04/16 06:50:22;;;;;;;4.43;1.60;;;22.30;64.50;;;;;;5069642;28;20032;-62
2021/04/16 06:53:01;;;;;;;4.95;1.73;;;22.30;64.60;;;;;;5069342;28;20055;-62
2021/04/16 06:55:48;;;;;;;4.07;1.90;;;22.30;64.70;;;;;;5069297;28;20496;-61
2021/04/16 06:58:26;;;;;;;4.82;2.03;;;22.20;64.70;;;;;;5069812;28;20028;-63
2021/04/16 07:01:11;;;;;;;6.03;1.88;;;22.20;65.20;;;;;;5067553;28;20101;-61
2021/04/16 07:03:44;;;;;;;3.63;1.80;;;22.20;64.70;;;;;;5069678;28;20061;-59
2021/04/16 07:06:29;;;;;;;5.57;1.90;;;22.20;64.80;;;;;;5069512;28;20085;-61
2021/04/16 07:08:59;;;;;;;5.25;2.03;;;22.10;64.60;;;;;;5068990;28;20060;-63
2021/04/16 07:11:30;;;;;;;5.25;1.83;;;22.10;64.80;;;;;;5068952;28;20060;-64
2021/04/16 07:14:01;;;;;;;6.23;2.33;;;22.10;64.80;;;;;;5067369;28;20123;-63
2021/04/16 07:16:33;;;;;;;3.88;1.40;;;22.10;64.80;;;;;;5067364;28;20612;-63
2021/04/16 07:19:13;;;;;;;7.53;2.08;;;22.00;64.80;;;;;;5059579;28;20058;-61
2021/04/16 07:21:55;;;;;;;9.63;2.10;;;22.00;65.00;;;;;;5064681;28;20425;-60
2021/04/16 07:24:23;;;;;;;3.22;1.52;;;22.00;65.10;;;;;;5065693;28;20031;-62
2021/04/16 07:26:56;;;;;;;5.85;1.88;;;22.00;65.00;;;;;;5067895;28;20029;-68
2021/04/16 07:29:58;;;;;;;5.65;1.92;;;22.00;65.00;;;;;;5064752;28;20025;-67
2021/04/16 07:32:32;;;;;;;4.63;1.43;;;21.90;65.60;;;;;;5014642;28;20686;-65
2021/04/16 07:35:20;;;;;;;6.45;1.88;;;22.00;65.00;;;;;;5065420;28;20025;-65
2021/04/16 07:38:08;;;;;;;6.43;2.28;;;22.00;64.80;;;;;;5068081;28;20051;-59
2021/04/16 07:40:40;;;;;;;5.00;1.85;;;22.00;64.90;;;;;;5063978;28;20052;-62
2021/04/16 07:43:09;;;;;;;5.03;1.75;;;22.00;64.80;;;;;;5066310;28;20502;-64
2021/04/16 07:45:49;;;;;;;6.18;1.58;;;21.90;64.80;;;;;;5065664;28;20047;-65
2021/04/16 07:48:20;;;;;;;6.07;2.00;;;21.90;64.80;;;;;;5062794;28;20028;-61
2021/04/16 07:50:53;;;;;;;5.70;1.98;;;21.90;64.50;;;;;;5065965;28;20424;-65
2021/04/16 07:53:40;;;;;;;3.58;1.58;;;21.90;64.60;;;;;;5067049;28;20040;-62
2021/04/16 07:56:26;;;;;;;6.85;2.17;;;22.00;64.50;;;;;;5065661;28;20051;-63
2021/04/16 07:59:13;;;;;;;7.68;2.30;;;21.90;64.40;;;;;;5060323;28;20029;-67
2021/04/16 08:01:50;;;;;;;5.05;1.73;;;22.00;64.40;;;;;;5065445;28;20337;-62
2021/04/16 08:04:20;;;;;;;7.32;2.25;;;21.90;64.40;;;;;;5064140;28;20032;-64
2021/04/16 08:06:54;;;;;;;5.03;2.03;;;21.90;64.40;;;;;;5067400;28;20067;-65
2021/04/16 08:09:33;;;;;;;6.82;2.15;;;21.90;64.20;;;;;;5060270;28;20049;-66
2021/04/16 08:12:04;;;;;;;5.75;1.88;;;21.90;64.10;;;;;;5065532;28;20042;-63
2021/04/16 08:14:34;;;;;;;4.38;2.05;;;21.90;63.80;;;;;;5067719;28;20483;-68
2021/04/16 08:17:06;;;;;;;6.18;2.03;;;21.90;64.20;;;;;;5067533;28;20068;-53
2021/04/16 08:19:38;;;;;;;7.35;2.60;;;21.90;63.90;;;;;;5060746;28;20150;-57
2021/04/16 08:22:08;;;;;;;;;;;21.90;64.00;;;;;;5068768;28;20032;-60
2021/04/16 08:24:55;;;;;;;5.88;1.98;;;21.90;63.90;;;;;;5066288;28;20678;-63
2021/04/16 08:27:32;;;;;;;3.65;1.52;;;21.90;64.00;;;;;;5065034;28;20032;-60
2021/04/16 08:30:30;;;;;;;4.22;1.60;;;21.80;64.00;;;;;;5060809;28;20134;-63
2021/04/16 08:33:24;;;;;;;4.13;1.50;;;21.90;63.90;;;;;;5058722;28;20079;-65
2021/04/16 08:35:54;;;;;;;4.78;1.90;;;21.90;64.00;;;;;;5062188;28;20056;-63
2021/04/16 08:38:26;;;;;;;3.08;1.45;;;21.80;63.70;;;;;;5062864;28;20147;-56
2021/04/16 08:41:01;;;;;;;8.02;1.90;;;21.90;63.80;;;;;;5065396;28;20032;-61
2021/04/16 08:43:34;;;;;;;3.63;1.55;;;21.80;63.80;;;;;;5066269;28;20033;-54
2021/04/16 08:46:17;;;;;;;3.72;1.33;;;21.80;63.70;;;;;;5066343;28;20578;-66
2021/04/16 08:48:52;;;;;;;6.35;1.85;;;21.80;63.80;;;;;;5041337;28;20185;-64
2021/04/16 08:51:21;;;;;;;6.05;1.52;;;21.80;63.50;;;;;;5064438;28;20530;-69
2021/04/16 08:53:48;;;;;;;4.70;1.52;;;21.80;63.60;;;;;;5065377;28;20093;-66
2021/04/16 08:56:41;;;;;;;5.30;2.30;;;21.80;63.40;;;;;;5066334;28;20028;-67
2021/04/16 08:59:16;;;;;;;5.00;2.00;;;21.80;63.50;;;;;;5061332;28;20028;-64
2021/04/16 09:02:16;;;;;;;4.63;1.52;;;21.80;63.30;;;;;;5068009;28;20052;-62
2021/04/16 09:04:56;;;;;;;5.57;1.70;;;21.80;63.40;;;;;;5066402;28;20083;-57
2021/04/16 09:07:35;;;;;;;3.33;1.58;;;21.80;63.50;;;;;;5069779;28;20028;-64
2021/04/16 09:10:25;;;;;;;6.30;2.00;;;21.80;63.20;;;;;;5061824;28;20048;-65
2021/04/16 09:13:04;;;;;;;4.80;1.95;;;21.70;63.40;;;;;;5067208;28;20040;-64
2021/04/16 09:15:34;;;;;;;9.02;2.22;;;21.70;63.30;;;;;;5070570;28;20059;-66
2021/04/16 09:18:02;;;;;;;3.20;1.45;;;21.70;63.30;;;;;;5067162;28;20809;-62
2021/04/16 09:20:35;;;;;;;4.78;2.05;;;21.70;63.10;;;;;;5063412;28;20029;-59
2021/04/16 09:23:17;;;;;;;4.75;1.92;;;21.80;63.10;;;;;;5070174;28;20035;-63
2021/04/16 09:25:49;;;;;;;3.50;1.60;;;21.80;63.30;;;;;;5069811;28;20505;-56
2021/04/16 09:28:25;;;;;;;3.70;1.83;;;21.80;63.30;;;;;;5070079;28;20495;-61
2021/04/16 09:30:53;;;;;;;5.40;1.77;;;21.80;63.20;;;;;;5067227;28;20029;-64
2021/04/16 09:33:37;;;;;;;5.13;1.67;;;21.70;62.90;;;;;;5068541;28;20037;-63
2021/04/16 09:36:41;;;;;;;5.38;1.50;;;21.70;62.90;;;;;;5069157;28;20080;-66
2021/04/16 09:39:33;;;;;;;5.63;1.60;;;21.70;62.50;;;;;;5009461;28;20041;-62
2021/04/16 09:42:01;;;;;;;3.63;1.50;;;21.70;62.70;;;;;;5068041;28;20097;-63
2021/04/16 09:44:30;;;;;;;6.07;1.70;;;21.70;62.80;;;;;;5069921;28;20029;-62
2021/04/16 09:47:03;;;;;;;4.65;1.90;;;21.70;62.80;;;;;;5069500;28;20115;-66
2021/04/16 09:49:49;;;;;;;5.40;2.25;;;21.70;62.40;;;;;;5065418;28;20526;-64
2021/04/16 09:52:35;;;;;;;5.68;1.83;;;21.70;62.70;;;;;;5068851;28;20055;-62
2021/04/16 09:55:23;;;;;;;4.22;1.95;;;21.70;62.80;;;;;;5069599;28;20078;-60
2021/04/16 09:57:50;;;;;;;4.68;1.70;;;21.70;62.50;;;;;;5068706;28;20023;-64
2021/04/16 10:00:37;;;;;;;6.57;2.28;;;21.70;62.80;;;;;;5063824;28;20028;-66
2021/04/16 10:03:48;;;;;;;3.60;1.70;;;21.70;62.70;;;;;;5067833;28;20043;-64
2021/04/16 10:06:49;;;;;;;3.95;1.67;;;21.60;62.80;;;;;;4966864;28;20529;-65
2021/04/16 10:09:18;;;;;;;3.70;1.60;;;21.60;62.90;;;;;;5062758;28;20136;-65
2021/04/16 10:11:52;;;;;;;4.28;1.55;;;21.60;62.80;;;;;;5069481;28;20035;-65
2021/04/16 10:14:27;;;;;;;4.20;1.80;;;21.60;62.90;;;;;;5072143;28;20036;-69
2021/04/16 10:17:15;;;;;;;3.55;1.40;;;21.60;62.70;;;;;;5065717;28;20074;-65
2021/04/16 10:20:07;;;;;;;4.80;1.77;;;21.50;62.90;;;;;;5062931;28;20130;-65
2021/04/16 10:22:38;;;;;;;4.13;1.60;;;21.50;62.90;;;;;;5069168;28;20123;-64
2021/04/16 10:38:48;;;;;;;3.70;1.65;;;21.40;63.20;;;;;;5067498;28;20035;-65
2021/04/16 10:41:30;;;;;;;3.10;1.55;;;21.40;63.80;;;;;;5054878;28;20059;-64
2021/04/16 10:48:08;;;;;;;5.03;1.80;;;21.50;63.30;;;;;;5066467;28;20090;-66
2021/04/16 10:54:16;;;;;;;2.83;1.38;;;21.50;63.30;;;;;;5066238;28;20106;-67
2021/04/16 12:38:46;;;;;;;3.08;1.25;;;21.40;63.00;;;;;;5066775;28;20062;-60
2021/04/16 12:41:27;;;;;;;4.07;1.92;;;21.40;62.60;;;;;;5068005;28;20025;-60
2021/04/16 12:43:55;;;;;;;5.63;1.70;;;21.40;62.80;;;;;;5070738;28;20035;-58
2021/04/16 12:46:41;;;;;;;2.63;1.33;;;21.30;62.90;;;;;;5070747;28;20056;-57
2021/04/16 12:49:09;;;;;;;5.05;1.85;;;21.40;62.80;;;;;;5065840;28;20506;-59
2021/04/16 12:51:37;;;;;;;6.57;1.83;;;21.30;62.80;;;;;;5070370;28;20418;-63
2021/04/16 12:54:04;;;;;;;4.93;1.80;;;21.30;63.00;;;;;;5070929;28;20483;-62
2021/04/16 12:56:41;;;;;;;3.95;1.65;;;21.30;62.90;;;;;;5070997;28;20032;-57
2021/04/16 12:59:16;;;;;;;3.00;1.42;;;21.30;63.00;;;;;;5065605;28;20147;-57
2021/04/16 13:01:49;;;;;;;4.65;1.52;;;21.30;63.00;;;;;;5070397;28;20028;-63
2021/04/16 13:04:19;;;;;;;4.05;1.55;;;21.30;63.00;;;;;;5067543;28;20654;-60
2021/04/16 13:06:49;;;;;;;2.83;1.40;;;21.30;62.60;;;;;;5070704;28;20056;-63
2021/04/16 13:09:19;;;;;;;2.55;1.40;;;21.20;63.10;;;;;;5064227;28;20054;-63
2021/04/16 13:11:50;;;;;;;5.13;1.58;;;21.20;63.20;;;;;;5070221;28;20037;-59
2021/04/16 13:14:19;;;;;;;2.63;1.33;;;21.20;62.90;;;;;;5071704;28;20052;-63
2021/04/16 13:16:46;;;;;;;3.20;1.30;;;21.20;63.30;;;;;;5071688;28;20108;-67
2021/04/16 13:19:35;;;;;;;3.53;1.80;;;21.20;63.30;;;;;;5071791;28;20033;-67
2021/04/16 13:22:12;;;;;;;2.65;1.45;;;21.20;63.40;;;;;;5071719;28;20028;-68
2021/04/16 13:24:40;;;;;;;3.28;1.63;;;21.20;63.40;;;;;;5071920;28;20123;-61
2021/04/16 13:27:10;;;;;;;4.70;1.58;;;21.10;63.40;;;;;;5071234;28;20033;-65
2021/04/16 13:29:37;;;;;;;4.07;1.90;;;21.10;64.00;;;;;;5071062;28;20032;-64
2021/04/16 13:32:09;;;;;;;3.20;1.70;;;21.10;63.40;;;;;;5071404;28;20043;-63
2021/04/16 13:34:39;;;;;;;2.90;1.50;;;21.10;63.40;;;;;;5071634;28;20501;-66
2021/04/16 13:37:09;;;;;;;2.95;1.40;;;21.10;63.30;;;;;;5071222;28;20033;-66
2021/04/16 13:39:36;;;;;;;4.25;1.60;;;21.10;63.50;;;;;;5071099;28;20028;-66
2021/04/16 13:42:03;;;;;;;4.18;2.08;;;21.00;63.60;;;;;;5071280;28;20043;-62
2021/04/16 13:44:31;;;;;;;3.58;1.13;;;21.00;63.50;;;;;;5070209;28;20118;-63
2021/04/16 13:47:01;;;;;;;2.67;1.42;;;21.00;63.60;;;;;;5069837;28;20101;-61
2021/04/16 13:49:35;;;;;;;4.05;1.63;;;21.00;63.70;;;;;;5069699;28;20031;-66
2021/04/16 13:52:03;;;;;;;3.00;1.20;;;21.00;63.20;;;;;;5071372;28;20070;-67
2021/04/16 13:54:32;;;;;;;3.70;1.50;;;20.90;63.60;;;;;;5069556;28;20422;-72
2021/04/16 13:56:59;;;;;;;5.10;2.10;;;20.90;63.80;;;;;;5071121;28;20025;-67
2021/04/16 13:59:27;;;;;;;2.50;1.10;;;20.90;64.00;;;;;;5070776;28;20757;-67
2021/04/16 14:01:55;;;;;;;3.03;1.40;;;20.90;64.00;;;;;;5070988;28;20367;-60
2021/04/16 14:04:36;;;;;;;4.28;1.67;;;20.90;64.00;;;;;;5070919;28;20072;-67
2021/04/16 14:07:06;;;;;;;5.28;1.77;;;20.90;64.00;;;;;;5069430;28;20031;-65
2021/04/16 14:09:35;;;;;;;2.63;1.45;;;20.90;64.10;;;;;;5070653;28;20506;-66
2021/04/16 14:12:03;;;;;;;4.85;1.65;;;20.90;64.20;;;;;;5070895;28;20029;-66
2021/04/16 14:14:31;;;;;;;3.17;1.42;;;20.90;64.20;;;;;;5070851;28;20032;-59
2021/04/16 14:17:06;;;;;;;2.92;1.45;;;20.80;64.50;;;;;;5064251;28;20102;-63
2021/04/16 14:19:45;;;;;;;5.72;1.52;;;20.80;64.30;;;;;;5069265;28;20036;-63
2021/04/16 14:22:34;;;;;;;2.33;1.17;;;20.80;64.40;;;;;;5069557;28;20110;-65
2021/04/16 14:25:03;;;;;;;4.38;1.50;;;20.80;64.40;;;;;;5068309;28;20024;-60
2021/04/16 14:27:31;;;;;;;2.75;1.25;;;20.80;64.50;;;;;;5066659;28;20033;-62
2021/04/16 14:29:58;;;;;;;3.38;1.77;;;20.80;64.50;;;;;;5067543;28;20051;-62
2021/04/16 14:32:26;;;;;;;3.45;1.30;;;20.80;64.60;;;;;;5068394;28;20479;-63
2021/04/16 14:34:53;;;;;;;2.92;1.45;;;20.80;64.60;;;;;;5066357;28;20451;-68
2021/04/16 14:37:21;;;;;;;3.25;1.73;;;20.70;64.60;;;;;;5067446;28;20127;-58
2021/04/16 14:39:48;;;;;;;4.25;1.67;;;20.70;64.60;;;;;;5068071;28;20486;-61
2021/04/16 14:42:17;;;;;;;3.90;1.27;;;20.70;64.70;;;;;;5067826;28;20063;-63
2021/04/16 14:44:46;;;;;;;4.20;1.65;;;20.70;64.80;;;;;;5065343;28;20069;-62
2021/04/16 14:47:13;;;;;;;4.15;1.55;;;20.70;64.90;;;;;;5066160;28;20399;-61
2021/04/16 14:49:40;;;;;;;2.95;1.38;;;20.60;64.80;;;;;;5068264;28;20487;-58
2021/04/16 14:52:12;;;;;;;4.47;1.73;;;20.60;64.90;;;;;;5066427;28;20024;-59
2021/04/16 14:54:50;;;;;;;5.83;2.13;;;20.60;65.00;;;;;;5064793;28;20028;-63
2021/04/16 14:57:43;;;;;;;4.13;1.60;;;20.60;64.90;;;;;;5067736;28;20020;-58
2021/04/16 15:00:20;;;;;;;4.13;1.50;;;20.60;65.10;;;;;;5063992;28;20128;-64
2021/04/16 15:02:48;;;;;;;5.60;2.10;;;20.60;65.20;;;;;;5066878;28;20047;-60
2021/04/16 15:05:18;;;;;;;5.50;1.75;;;20.60;65.20;;;;;;5063678;28;20051;-60
2021/04/16 15:07:56;;;;;;;5.32;1.52;;;20.50;65.30;;;;;;5067552;28;20051;-59
2021/04/16 15:10:38;;;;;;;2.90;1.17;;;20.50;65.30;;;;;;5067665;28;20147;-59
2021/04/16 15:13:08;;;;;;;4.43;1.63;;;20.50;65.40;;;;;;5067898;28;20042;-61
2021/04/16 15:15:48;;;;;;;4.25;1.50;;;20.50;65.40;;;;;;5061975;28;20794;-62
2021/04/16 15:18:19;;;;;;;2.95;1.40;;;20.50;65.40;;;;;;5068000;28;20036;-63